Pagina principale
METAR-TAF:

METAR-TAF

Aeroporti :

Sam Mbakwe Airport

Owerri, Nigeria

latitudine: 5-25-35N, longitudine: 7-12-20E, altezza: 114 m

METAR: mancante

Ora: 04:27 (03:27 UTC)

Previsione

Il bollettino è stato emesso 4 ore e 27 minuti fa, alle 23:00 UTC
Previsione valida dal 24 alle 00 UTC al 25 alle 06 UTC
Vento 3 kt da sud
Visibilità: 8000 m
Temporaneamente
dal 24 alle 04 UTC al 24 alle 08 UTC
Visibilità: 5000 m
foschia
Probabilità 30%
dal 24 alle 05 UTC al 24 alle 07 UTC
Visibilità: 3000 m
Evoluzione graduale
dal 24 alle 08 UTC al 24 alle 10 UTC
Vento 10 kt da ovest/nord-ovest
Nuvoloso ad un'altezza di 1300 ft

TAF: DNIM 232300Z 2400/2506 17003KT 8000 NSC TEMPO 2404/2408 5000 HZ PROB30 2405/2407 3000 BECMG 2408/2410 30010KT BKN013

Osservazioni e previsioni meteorologiche di più di 4000 aeroporti (messaggi METAR e TAF).

Le stazioni disponibili sono rappresentate dai dischi gialli e rossi sulla carta.

Puntare il mouse per vedere il nome della stazione.

Clicca sopra per visualizzare le osservazioni e previsioni meteorologiche.

Per cambiare la mappa : fare clic sui pulsanti verdi con una croce nera per ingrandire, il pulsante verde con un trattino per diminuire, o sulla freccia verde per le mappe adiacenti.


METAR-TAF: